<?xml version="1.0" encoding="utf-8"?>
<gpx xmlns:xsi="http://www.w3.org/2001/XMLSchema-instance" xmlns:xsd="http://www.w3.org/2001/XMLSchema" version="1.1" creator="Shapelink.com" xmlns="http://www.topografix.com/GPX/1/1" xmlns:gpxtpx="http://www.garmin.com/xmlschemas/TrackPointExtension/v1">
  <metadata>
    <name>Övrigt 2.47 km, 2019-04-20</name>
    <desc></desc>
    <author><name>Marian Moron</name></author> 
    <time>2019-04-20T21:13:43Z</time>
  </metadata>
  <trk>
    <name>Övrigt 2.47 km, 2019-04-20</name>
    <trkseg>
      <trkpt lat="51.229845822081" lon="4.45806941834">
        <ele>0</ele>
        <time>2019-04-20T21:13:43Z</time>
      </trkpt>
      <trkpt lat="51.229894856196" lon="4.458581300973">
        <ele>0</ele>
        <time>2019-04-20T21:14:15Z</time>
      </trkpt>
      <trkpt lat="51.229938442076" lon="4.458886569771">
        <ele>0</ele>
        <time>2019-04-20T21:14:45Z</time>
      </trkpt>
      <trkpt lat="51.229973394599" lon="4.458924707416">
        <ele>0</ele>
        <time>2019-04-20T21:14:49Z</time>
      </trkpt>
      <trkpt lat="51.230154695096" lon="4.459016740678">
        <ele>0</ele>
        <time>2019-04-20T21:15:19Z</time>
      </trkpt>
      <trkpt lat="51.230243794693" lon="4.458875254206">
        <ele>0</ele>
        <time>2019-04-20T21:15:43Z</time>
      </trkpt>
      <trkpt lat="51.230383940061" lon="4.459494760435">
        <ele>0</ele>
        <time>2019-04-20T21:16:30Z</time>
      </trkpt>
      <trkpt lat="51.230472117649" lon="4.459706319591">
        <ele>0</ele>
        <time>2019-04-20T21:16:43Z</time>
      </trkpt>
      <trkpt lat="51.230516290262" lon="4.459774883533">
        <ele>0</ele>
        <time>2019-04-20T21:16:48Z</time>
      </trkpt>
      <trkpt lat="51.230788618193" lon="4.459769183841">
        <ele>0</ele>
        <time>2019-04-20T21:17:17Z</time>
      </trkpt>
      <trkpt lat="51.230878388342" lon="4.45980111888">
        <ele>0</ele>
        <time>2019-04-20T21:17:25Z</time>
      </trkpt>
      <trkpt lat="51.231126408763" lon="4.459788462211">
        <ele>0</ele>
        <time>2019-04-20T21:18:11Z</time>
      </trkpt>
      <trkpt lat="51.231154069033" lon="4.46012046927">
        <ele>0</ele>
        <time>2019-04-20T21:18:36Z</time>
      </trkpt>
      <trkpt lat="51.231343835249" lon="4.460627658039">
        <ele>0</ele>
        <time>2019-04-20T21:19:14Z</time>
      </trkpt>
      <trkpt lat="51.231245012648" lon="4.460857573556">
        <ele>0</ele>
        <time>2019-04-20T21:19:38Z</time>
      </trkpt>
      <trkpt lat="51.231273427289" lon="4.461134008618">
        <ele>0</ele>
        <time>2019-04-20T21:19:56Z</time>
      </trkpt>
      <trkpt lat="51.231282312103" lon="4.461206847329">
        <ele>0</ele>
        <time>2019-04-20T21:20:02Z</time>
      </trkpt>
      <trkpt lat="51.231504767729" lon="4.461601551">
        <ele>0</ele>
        <time>2019-04-20T21:21:10Z</time>
      </trkpt>
      <trkpt lat="51.231654803739" lon="4.461767261163">
        <ele>0</ele>
        <time>2019-04-20T21:22:19Z</time>
      </trkpt>
      <trkpt lat="51.231646924753" lon="4.462281490728">
        <ele>0</ele>
        <time>2019-04-20T21:23:18Z</time>
      </trkpt>
      <trkpt lat="51.231593364412" lon="4.462979032446">
        <ele>0</ele>
        <time>2019-04-20T21:24:04Z</time>
      </trkpt>
      <trkpt lat="51.231458080546" lon="4.463271896032">
        <ele>0</ele>
        <time>2019-04-20T21:24:36Z</time>
      </trkpt>
      <trkpt lat="51.231084163987" lon="4.463337610128">
        <ele>0</ele>
        <time>2019-04-20T21:25:44Z</time>
      </trkpt>
      <trkpt lat="51.230994980571" lon="4.463362001457">
        <ele>0.6</ele>
        <time>2019-04-20T21:25:53Z</time>
      </trkpt>
      <trkpt lat="51.230765651787" lon="4.463361079448">
        <ele>6.6</ele>
        <time>2019-04-20T21:26:29Z</time>
      </trkpt>
      <trkpt lat="51.230424843733" lon="4.46344221624">
        <ele>5.2</ele>
        <time>2019-04-20T21:27:02Z</time>
      </trkpt>
      <trkpt lat="51.230438590049" lon="4.463635251397">
        <ele>0</ele>
        <time>2019-04-20T21:27:24Z</time>
      </trkpt>
      <trkpt lat="51.23064889192" lon="4.464275880014">
        <ele>0</ele>
        <time>2019-04-20T21:28:00Z</time>
      </trkpt>
      <trkpt lat="51.230746289598" lon="4.464599002259">
        <ele>0</ele>
        <time>2019-04-20T21:28:26Z</time>
      </trkpt>
      <trkpt lat="51.230828180761" lon="4.465309200646">
        <ele>0</ele>
        <time>2019-04-20T21:29:09Z</time>
      </trkpt>
      <trkpt lat="51.230832790806" lon="4.465655289297">
        <ele>0</ele>
        <time>2019-04-20T21:29:32Z</time>
      </trkpt>
      <trkpt lat="51.230831282064" lon="4.465736929003">
        <ele>0</ele>
        <time>2019-04-20T21:29:35Z</time>
      </trkpt>
      <trkpt lat="51.230809656762" lon="4.465878080199">
        <ele>0</ele>
        <time>2019-04-20T21:29:43Z</time>
      </trkpt>
      <trkpt lat="51.230802699785" lon="4.466519295549">
        <ele>1.2</ele>
        <time>2019-04-20T21:30:28Z</time>
      </trkpt>
      <trkpt lat="51.230792306229" lon="4.466643096212">
        <ele>3.8</ele>
        <time>2019-04-20T21:30:38Z</time>
      </trkpt>
      <trkpt lat="51.230732459463" lon="4.467306523597">
        <ele>0</ele>
        <time>2019-04-20T21:31:25Z</time>
      </trkpt>
      <trkpt lat="51.230550991328" lon="4.467335524971">
        <ele>0</ele>
        <time>2019-04-20T21:31:56Z</time>
      </trkpt>
      <trkpt lat="51.230111528311" lon="4.467458990358">
        <ele>0</ele>
        <time>2019-04-20T21:33:01Z</time>
      </trkpt>
      <trkpt lat="51.230101302393" lon="4.467466282611">
        <ele>0</ele>
        <time>2019-04-20T21:33:02Z</time>
      </trkpt>
      <trkpt lat="51.229796117414" lon="4.467605841246">
        <ele>0</ele>
        <time>2019-04-20T21:33:38Z</time>
      </trkpt>
      <trkpt lat="51.229372244731" lon="4.467632914783">
        <ele>0</ele>
        <time>2019-04-20T21:34:33Z</time>
      </trkpt>
      <trkpt lat="51.229321869512" lon="4.467622940322">
        <ele>0</ele>
        <time>2019-04-20T21:34:44Z</time>
      </trkpt>
      <trkpt lat="51.229301585314" lon="4.467616570078">
        <ele>0</ele>
        <time>2019-04-20T21:34:46Z</time>
      </trkpt>
      <trkpt lat="51.229225393843" lon="4.467594274224">
        <ele>0</ele>
        <time>2019-04-20T21:35:10Z</time>
      </trkpt>
      <trkpt lat="51.228791211423" lon="4.467407944587">
        <ele>0</ele>
        <time>2019-04-20T21:35:48Z</time>
      </trkpt>
      <trkpt lat="51.228326854163" lon="4.467352204952">
        <ele>3</ele>
        <time>2019-04-20T21:36:26Z</time>
      </trkpt>
      <trkpt lat="51.228289303251" lon="4.467314905497">
        <ele>5</ele>
        <time>2019-04-20T21:36:32Z</time>
      </trkpt>
      <trkpt lat="51.228172711022" lon="4.467110890051">
        <ele>4.8</ele>
        <time>2019-04-20T21:36:46Z</time>
      </trkpt>
      <trkpt lat="51.227891498277" lon="4.466698500571">
        <ele>0</ele>
        <time>2019-04-20T21:37:41Z</time>
      </trkpt>
      <trkpt lat="51.227860904342" lon="4.466666230256">
        <ele>0</ele>
        <time>2019-04-20T21:37:47Z</time>
      </trkpt>
      <trkpt lat="51.227853695908" lon="4.466481576999">
        <ele>0</ele>
        <time>2019-04-20T21:38:02Z</time>
      </trkpt>
      <trkpt lat="51.227899293444" lon="4.466206650679">
        <ele>0</ele>
        <time>2019-04-20T21:38:25Z</time>
      </trkpt>
      <trkpt lat="51.227929887379" lon="4.465905405193">
        <ele>0</ele>
        <time>2019-04-20T21:38:52Z</time>
      </trkpt>
      <trkpt lat="51.227976574562" lon="4.46537592057">
        <ele>0</ele>
        <time>2019-04-20T21:39:33Z</time>
      </trkpt>
      <trkpt lat="51.227974143811" lon="4.465013487214">
        <ele>0</ele>
        <time>2019-04-20T21:39:54Z</time>
      </trkpt>
      <trkpt lat="51.227943130781" lon="4.464905360704">
        <ele>2.6</ele>
        <time>2019-04-20T21:39:59Z</time>
      </trkpt>
      <trkpt lat="51.227914967597" lon="4.46463831337">
        <ele>2.2</ele>
        <time>2019-04-20T21:40:14Z</time>
      </trkpt>
      <trkpt lat="51.227913375036" lon="4.464595900956">
        <ele>1.8</ele>
        <time>2019-04-20T21:40:17Z</time>
      </trkpt>
      <trkpt lat="51.227903065299" lon="4.464371182217">
        <ele>1.2</ele>
        <time>2019-04-20T21:40:34Z</time>
      </trkpt>
      <trkpt lat="51.22786274836" lon="4.463640280537">
        <ele>1.4</ele>
        <time>2019-04-20T21:41:20Z</time>
      </trkpt>
      <trkpt lat="51.227885295671" lon="4.463509103802">
        <ele>3.2</ele>
        <time>2019-04-20T21:41:32Z</time>
      </trkpt>
      <trkpt lat="51.227746910502" lon="4.463032508968">
        <ele>0</ele>
        <time>2019-04-20T21:42:13Z</time>
      </trkpt>
      <trkpt lat="51.227685974089" lon="4.462852717213">
        <ele>0</ele>
        <time>2019-04-20T21:42:41Z</time>
      </trkpt>
      <trkpt lat="51.227571561154" lon="4.462335051069">
        <ele>0.8</ele>
        <time>2019-04-20T21:43:14Z</time>
      </trkpt>
      <trkpt lat="51.227550522585" lon="4.462196917357">
        <ele>2.2</ele>
        <time>2019-04-20T21:43:25Z</time>
      </trkpt>
      <trkpt lat="51.227452957269" lon="4.461818390753">
        <ele>4.8</ele>
        <time>2019-04-20T21:44:06Z</time>
      </trkpt>
      <trkpt lat="51.227429739406" lon="4.461750329725">
        <ele>5.4</ele>
        <time>2019-04-20T21:44:22Z</time>
      </trkpt>
      <trkpt lat="51.227358241799" lon="4.461510355928">
        <ele>3.8</ele>
        <time>2019-04-20T21:44:53Z</time>
      </trkpt>
      <trkpt lat="51.227352793564" lon="4.461197375782">
        <ele>1.4</ele>
        <time>2019-04-20T21:45:27Z</time>
      </trkpt>
      <trkpt lat="51.227433008347" lon="4.460659173983">
        <ele>4.6</ele>
        <time>2019-04-20T21:46:13Z</time>
      </trkpt>
      <trkpt lat="51.227451029432" lon="4.460315599902">
        <ele>4</ele>
        <time>2019-04-20T21:46:35Z</time>
      </trkpt>
      <trkpt lat="51.22719219636" lon="4.459721574649">
        <ele>0</ele>
        <time>2019-04-20T21:47:19Z</time>
      </trkpt>
      <trkpt lat="51.227123129504" lon="4.459440613361">
        <ele>0</ele>
        <time>2019-04-20T21:47:38Z</time>
      </trkpt>
      <trkpt lat="51.227104773143" lon="4.459400044965">
        <ele>0</ele>
        <time>2019-04-20T21:47:41Z</time>
      </trkpt>
      <trkpt lat="51.227116004889" lon="4.459091339588">
        <ele>0</ele>
        <time>2019-04-20T21:48:15Z</time>
      </trkpt>
      <trkpt lat="51.227179120596" lon="4.459031995736">
        <ele>0</ele>
        <time>2019-04-20T21:48:23Z</time>
      </trkpt>
      <trkpt lat="51.22761212955" lon="4.458844827909">
        <ele>0</ele>
        <time>2019-04-20T21:49:10Z</time>
      </trkpt>
      <trkpt lat="51.227843805266" lon="4.458736282304">
        <ele>0</ele>
        <time>2019-04-20T21:49:35Z</time>
      </trkpt>
      <trkpt lat="51.228256949117" lon="4.45846252945">
        <ele>0</ele>
        <time>2019-04-20T21:50:24Z</time>
      </trkpt>
      <trkpt lat="51.228500024217" lon="4.458247701353">
        <ele>5.4</ele>
        <time>2019-04-20T21:50:51Z</time>
      </trkpt>
      <trkpt lat="51.228504885719" lon="4.458180646153">
        <ele>6</ele>
        <time>2019-04-20T21:50:55Z</time>
      </trkpt>
      <trkpt lat="51.228472028671" lon="4.457453683966">
        <ele>6.4</ele>
        <time>2019-04-20T21:51:32Z</time>
      </trkpt>
      <trkpt lat="51.228444368401" lon="4.457227288847">
        <ele>4.4</ele>
        <time>2019-04-20T21:51:53Z</time>
      </trkpt>
      <trkpt lat="51.228450654826" lon="4.457198958025">
        <ele>4</ele>
        <time>2019-04-20T21:51:55Z</time>
      </trkpt>
      <trkpt lat="51.228551153807" lon="4.4569747422">
        <ele>3.2</ele>
        <time>2019-04-20T21:52:15Z</time>
      </trkpt>
      <trkpt lat="51.228992460842" lon="4.45684146999">
        <ele>3.6</ele>
        <time>2019-04-20T21:52:56Z</time>
      </trkpt>
      <trkpt lat="51.22940334158" lon="4.456884636775">
        <ele>9.6</ele>
        <time>2019-04-20T21:53:39Z</time>
      </trkpt>
      <trkpt lat="51.229701821039" lon="4.456715154757">
        <ele>5.8</ele>
        <time>2019-04-20T21:54:44Z</time>
      </trkpt>
      <trkpt lat="51.229955205876" lon="4.456555060467">
        <ele>0</ele>
        <time>2019-04-20T21:55:28Z</time>
      </trkpt>
      <trkpt lat="51.229981608861" lon="4.456647596643">
        <ele>2</ele>
        <time>2019-04-20T21:55:39Z</time>
      </trkpt>
      <trkpt lat="51.229872392704" lon="4.456736360964">
        <ele>1.2</ele>
        <time>2019-04-20T21:56:06Z</time>
      </trkpt>
      <trkpt lat="51.229817826535" lon="4.456861083636">
        <ele>1</ele>
        <time>2019-04-20T21:56:14Z</time>
      </trkpt>
      <trkpt lat="51.229799386355" lon="4.456897712539">
        <ele>1.8</ele>
        <time>2019-04-20T21:56:18Z</time>
      </trkpt>
      <trkpt lat="51.229822771856" lon="4.457106924763">
        <ele>1.4</ele>
        <time>2019-04-20T21:56:30Z</time>
      </trkpt>
      <trkpt lat="51.229851270316" lon="4.457451337034">
        <ele>0</ele>
        <time>2019-04-20T21:56:53Z</time>
      </trkpt>
      <trkpt lat="51.229753285905" lon="4.457969338454">
        <ele>0</ele>
        <time>2019-04-20T21:57:47Z</time>
      </trkpt>
      <trkpt lat="51.229692600949" lon="4.457929356791">
        <ele>0</ele>
        <time>2019-04-20T21:58:10Z</time>
      </trkpt>
    </trkseg>
  </trk>
</gpx>